Hauptseite
METAR-TAF:

METAR-TAF

Flughäfen :

Flughafen Khartum

Khartum, Sudan

Breite: 15-36N, Länge: 032-33E, Höhe: 382 m

Beobachtung

Neuester Wetterbericht von vor 34 Minuten, um 04:00 UTC
Wind 6 kt aus Nord
Temperatur 16°C
Luftfeuchtigkeit 29%
Luftdruck 1014 hPa
Sichtweite 10 km oder mehr
keine Wolken unter 1500 m und keine Kumulonimbus oder Gewitterwolken

METAR: HSSS 210400Z 35006KT CAVOK 16/M02 Q1014 NOSIG

Zeit: 07:34 (04:34 UTC)

Prognose

Neuester Wetterbericht von vor 5 Stunden und 34 Minuten, um 23:00 UTC
Gültige Prognose vom 21 um 00 UTC bis 22 um 06 UTC
Wind 10 kt aus Nord, Böen bis zu 20 kt
Sichtweite 10 km oder mehr
keine Wolken unter 1500 m und keine Kumulonimbus oder Gewitterwolken

TAF: HSSS 202300Z 2100/2206 36010G20KT CAVOK

Wetterbeobachtungen und Prognosen von mehr als 4000 Flughäfen (METAR und TAF Bericht).

Die verfügbaren Stationen werden durch gelbe und rote Markierungen auf der Karte dargestellt.

Führen Sie die Maus auf sie, um den Namen der Station zu sehen.

Darauf klicken, um die Beobachtung von Wetterbeobachtungen und Prognosen zu sehen.

Um die Karte zu ändern : klicken Sie auf den grünen Tasten mit einem schwarzen Kreuz Zum Vergrößern, auf den grünen Button mit einem Gedankenstrich zu verkleinern, oder auf die grünen Pfeile für benachbarte Karten.


METAR-TAF: